createdAt,value
2023-03-14T00:00:52.123Z,0.30
2023-03-14T00:03:18.946Z,0.30
2023-03-14T00:05:45.544Z,0.40
2023-03-14T00:08:13.884Z,0.40
2023-03-14T00:10:40.726Z,0.38
2023-03-14T00:13:07.820Z,0.30
2023-03-14T00:15:35.831Z,0.30
2023-03-14T00:18:02.871Z,0.30
2023-03-14T00:20:29.451Z,0.30
2023-03-14T00:22:56.047Z,0.40
2023-03-14T00:25:22.699Z,0.30
2023-03-14T00:27:51.887Z,0.35
2023-03-14T00:30:18.829Z,0.30
2023-03-14T00:32:45.577Z,0.30
2023-03-14T00:35:12.133Z,0.40
2023-03-14T00:37:38.761Z,0.30
2023-03-14T00:40:07.710Z,0.30
2023-03-14T00:42:34.695Z,0.30
2023-03-14T00:45:02.578Z,0.40
2023-03-14T00:47:29.218Z,0.30
2023-03-14T00:49:55.847Z,0.30
2023-03-14T00:52:22.441Z,0.30
2023-03-14T00:54:48.994Z,0.30
2023-03-14T00:57:15.576Z,0.30
2023-03-14T00:59:42.168Z,0.30
2023-03-14T01:02:08.886Z,0.40
2023-03-14T01:04:35.821Z,0.40
2023-03-14T01:07:02.394Z,0.30
2023-03-14T01:09:28.979Z,0.30
2023-03-14T01:11:55.600Z,0.40
2023-03-14T01:14:22.182Z,0.40
2023-03-14T01:16:48.739Z,0.40
2023-03-14T01:19:15.425Z,0.30
2023-03-14T01:21:42.205Z,0.30
2023-03-14T01:24:11.145Z,0.38
2023-03-14T01:26:37.726Z,0.30
2023-03-14T01:29:05.131Z,0.30
2023-03-14T01:31:31.850Z,0.30
2023-03-14T01:33:58.583Z,0.30
2023-03-14T01:36:25.227Z,0.30
2023-03-14T01:38:51.877Z,0.32
2023-03-14T01:41:24.023Z,0.35
2023-03-14T01:43:51.462Z,0.40
2023-03-14T01:46:23.367Z,0.30
2023-03-14T01:49:25.003Z,0.30
2023-03-14T01:52:07.639Z,0.30
2023-03-14T01:54:47.386Z,0.30
2023-03-14T01:57:40.503Z,0.30
2023-03-14T02:00:13.501Z,0.30
2023-03-14T02:02:46.481Z,0.30
2023-03-14T02:05:17.057Z,0.30
2023-03-14T02:07:58.851Z,0.30
2023-03-14T02:10:28.998Z,0.25
2023-03-14T02:12:57.810Z,0.30
2023-03-14T02:15:24.697Z,0.30
2023-03-14T02:17:52.592Z,0.30
2023-03-14T02:20:38.006Z,0.30
2023-03-14T02:23:04.905Z,0.30
2023-03-14T02:25:34.444Z,0.30
2023-03-14T02:28:02.317Z,0.30
2023-03-14T02:30:31.867Z,0.30
2023-03-14T02:33:03.354Z,0.30
2023-03-14T02:35:35.856Z,0.30
2023-03-14T02:38:08.784Z,0.40
2023-03-14T02:40:35.372Z,0.30
2023-03-14T02:43:02.069Z,0.30
2023-03-14T02:45:36.537Z,0.30
2023-03-14T02:48:11.892Z,0.30
2023-03-14T02:50:39.251Z,0.30
2023-03-14T02:53:06.031Z,0.30
2023-03-14T02:55:32.793Z,0.30
2023-03-14T02:57:59.386Z,0.30
2023-03-14T03:00:26.509Z,0.30
2023-03-14T03:02:53.240Z,0.30
2023-03-14T03:05:19.848Z,0.30
2023-03-14T03:07:46.444Z,0.30
2023-03-14T03:10:13.246Z,0.30
2023-03-14T03:12:39.865Z,0.30
2023-03-14T03:15:07.016Z,0.30
2023-03-14T03:17:33.630Z,0.30
2023-03-14T03:20:00.235Z,0.30
2023-03-14T03:22:26.800Z,0.30
2023-03-14T03:24:53.390Z,0.30
2023-03-14T03:27:19.994Z,0.30
2023-03-14T03:29:46.665Z,0.30
2023-03-14T03:32:13.230Z,0.30
2023-03-14T03:34:39.774Z,0.30
2023-03-14T03:37:06.328Z,0.30
2023-03-14T03:39:32.970Z,0.30
2023-03-14T03:41:59.531Z,0.30
2023-03-14T03:44:26.179Z,0.30
2023-03-14T03:46:53.295Z,0.30
2023-03-14T03:49:19.899Z,0.30
2023-03-14T03:51:46.473Z,0.30
2023-03-14T03:54:13.023Z,0.30
2023-03-14T03:56:39.618Z,0.30
2023-03-14T03:59:06.254Z,0.30
2023-03-14T04:01:32.933Z,0.30
2023-03-14T04:03:59.621Z,0.30
2023-03-14T04:06:26.348Z,0.30
2023-03-14T04:08:54.382Z,0.30
2023-03-14T04:11:21.017Z,0.30
2023-03-14T04:13:47.660Z,0.25
2023-03-14T04:16:18.600Z,0.30
2023-03-14T04:18:45.356Z,0.30
2023-03-14T04:21:11.909Z,0.30
2023-03-14T04:23:38.533Z,0.30
2023-03-14T04:26:05.500Z,0.30
2023-03-14T04:28:32.121Z,0.30
2023-03-14T04:30:58.860Z,0.30
2023-03-14T04:33:25.488Z,0.30
2023-03-14T04:35:55.284Z,0.30
2023-03-14T04:38:21.988Z,0.30
2023-03-14T04:40:48.608Z,0.30
2023-03-14T04:43:15.255Z,0.30
2023-03-14T04:45:45.040Z,0.30
2023-03-14T04:48:11.761Z,0.30
2023-03-14T04:50:38.367Z,0.25
2023-03-14T04:53:05.341Z,0.30
2023-03-14T04:55:33.499Z,0.30
2023-03-14T04:58:00.388Z,0.30
2023-03-14T05:00:27.108Z,0.30
2023-03-14T05:02:53.754Z,0.30
2023-03-14T05:05:20.556Z,0.30
2023-03-14T05:07:47.522Z,0.30
2023-03-14T05:10:14.241Z,0.30
2023-03-14T05:12:40.929Z,0.30
2023-03-14T05:15:08.254Z,0.30
2023-03-14T05:17:35.772Z,0.30
2023-03-14T05:20:02.744Z,0.30
2023-03-14T05:22:29.387Z,0.30
2023-03-14T05:24:57.758Z,0.30
2023-03-14T05:27:24.481Z,0.30
2023-03-14T05:29:51.074Z,0.40
2023-03-14T05:32:17.624Z,0.40
2023-03-14T05:34:44.193Z,0.40
2023-03-14T05:37:10.807Z,0.40
2023-03-14T05:39:37.420Z,0.30
2023-03-14T05:42:04.095Z,0.40
2023-03-14T05:44:30.658Z,0.40
2023-03-14T05:46:57.298Z,0.35
2023-03-14T05:49:24.155Z,0.40
2023-03-14T05:51:50.744Z,0.40
2023-03-14T05:54:17.282Z,0.40
2023-03-14T05:56:43.968Z,0.40
2023-03-14T05:59:10.990Z,0.40
2023-03-14T06:01:37.598Z,0.40
2023-03-14T06:04:04.262Z,0.40
2023-03-14T06:06:30.879Z,0.40
2023-03-14T06:08:57.505Z,0.40
2023-03-14T06:11:24.123Z,0.40
2023-03-14T06:13:52.115Z,0.40
2023-03-14T06:16:18.769Z,0.40
2023-03-14T06:18:47.538Z,0.40
2023-03-14T06:21:14.084Z,0.40
2023-03-14T06:23:40.681Z,0.50
2023-03-14T06:26:07.446Z,0.40
2023-03-14T06:28:34.130Z,0.50
2023-03-14T06:31:01.336Z,0.50
2023-03-14T06:33:27.946Z,0.47
2023-03-14T06:35:54.597Z,0.40
2023-03-14T06:38:21.369Z,0.40
2023-03-14T06:40:48.067Z,0.50
2023-03-14T06:43:14.658Z,0.40
2023-03-14T06:45:41.290Z,0.38
2023-03-14T06:48:07.872Z,0.50
2023-03-14T06:50:34.632Z,0.50
2023-03-14T06:53:01.291Z,0.50
2023-03-14T06:55:27.928Z,0.50
2023-03-14T06:57:54.563Z,0.50
2023-03-14T07:00:21.302Z,0.50
2023-03-14T07:02:47.979Z,0.50
2023-03-14T07:05:14.664Z,0.50
2023-03-14T07:07:41.198Z,0.50
2023-03-14T07:10:09.975Z,0.47
2023-03-14T07:12:36.996Z,0.50
2023-03-14T07:15:15.665Z,0.50
2023-03-14T07:17:45.233Z,0.50
2023-03-14T07:20:12.060Z,0.50
2023-03-14T07:22:38.650Z,0.60
2023-03-14T07:25:05.894Z,0.60
2023-03-14T07:27:32.564Z,0.60
2023-03-14T07:29:59.149Z,0.70
2023-03-14T07:32:26.190Z,0.60
2023-03-14T07:34:52.841Z,0.60
2023-03-14T07:37:19.432Z,0.60
2023-03-14T07:39:46.162Z,0.60
2023-03-14T07:42:12.772Z,0.70
2023-03-14T07:44:39.380Z,0.70
2023-03-14T07:47:06.623Z,0.68
2023-03-14T07:49:33.260Z,0.70
2023-03-14T07:52:00.148Z,0.70
2023-03-14T07:54:26.874Z,0.68
2023-03-14T07:56:53.512Z,0.75
2023-03-14T07:59:20.305Z,0.70
2023-03-14T08:01:46.912Z,0.70
2023-03-14T08:04:13.697Z,0.77
2023-03-14T08:06:40.435Z,0.80
2023-03-14T08:09:07.130Z,0.70
2023-03-14T08:11:33.767Z,0.70
2023-03-14T08:14:00.383Z,0.70
2023-03-14T08:16:27.257Z,0.60
2023-03-14T08:18:53.907Z,0.70
2023-03-14T08:21:20.590Z,0.60
2023-03-14T08:23:47.493Z,0.70
2023-03-14T08:26:14.058Z,0.73
2023-03-14T08:28:40.813Z,0.70
2023-03-14T08:31:07.819Z,0.70
2023-03-14T08:33:34.559Z,0.80
2023-03-14T08:36:01.930Z,0.73
2023-03-14T08:38:29.415Z,0.80
2023-03-14T08:41:00.530Z,0.80
2023-03-14T08:43:28.527Z,0.80
2023-03-14T08:45:59.344Z,0.90
2023-03-14T08:48:25.973Z,0.90
2023-03-14T08:50:52.704Z,0.90
2023-03-14T08:53:19.754Z,0.90
2023-03-14T08:55:46.352Z,0.88
2023-03-14T08:58:14.946Z,0.98
2023-03-14T09:00:41.503Z,0.90
2023-03-14T09:03:08.169Z,0.90
2023-03-14T09:05:35.648Z,0.90
2023-03-14T09:08:02.373Z,1.00
2023-03-14T09:10:29.350Z,1.00
2023-03-14T09:12:56.020Z,0.90
2023-03-14T09:15:22.686Z,1.00
2023-03-14T09:17:49.412Z,0.90
2023-03-14T09:20:16.240Z,1.00
2023-03-14T09:22:43.118Z,1.00
2023-03-14T09:25:10.754Z,0.93
2023-03-14T09:27:37.453Z,0.90
2023-03-14T09:30:05.032Z,1.00
2023-03-14T09:32:32.731Z,1.00
2023-03-14T09:34:59.570Z,1.00
2023-03-14T09:37:26.218Z,1.00
2023-03-14T09:39:52.862Z,1.00
2023-03-14T09:42:24.106Z,1.00
2023-03-14T09:45:01.724Z,1.00
2023-03-14T09:47:29.263Z,1.00
2023-03-14T09:49:55.926Z,1.15
2023-03-14T09:52:31.188Z,1.10
2023-03-14T09:55:00.430Z,1.23
2023-03-14T09:57:28.939Z,1.10
2023-03-14T10:00:01.046Z,1.00
2023-03-14T10:02:35.574Z,1.20
2023-03-14T10:05:06.646Z,1.20
2023-03-14T10:07:34.220Z,1.10
2023-03-14T10:10:01.530Z,1.10
2023-03-14T10:12:36.875Z,1.10
2023-03-14T10:15:08.888Z,1.10
2023-03-14T10:17:49.615Z,1.10
2023-03-14T10:20:38.850Z,1.20
2023-03-14T10:23:29.800Z,1.30
2023-03-14T10:26:06.704Z,1.20
2023-03-14T10:28:38.407Z,1.10
2023-03-14T10:31:05.432Z,1.20
2023-03-14T10:33:35.649Z,1.30
2023-03-14T10:36:16.923Z,1.20
2023-03-14T10:38:43.607Z,1.40
2023-03-14T10:41:27.882Z,1.33
2023-03-14T10:43:58.701Z,1.25
2023-03-14T10:46:28.207Z,1.13
2023-03-14T10:48:55.128Z,1.27
2023-03-14T10:51:28.417Z,1.20
2023-03-14T10:54:05.387Z,1.40
2023-03-14T10:56:37.564Z,1.40
2023-03-14T10:59:07.874Z,1.30
2023-03-14T11:02:01.173Z,1.40
2023-03-14T11:04:39.888Z,1.20
2023-03-14T11:07:28.077Z,1.30
2023-03-14T11:10:00.759Z,1.10
2023-03-14T11:12:30.393Z,1.20
2023-03-14T11:15:06.662Z,1.20
2023-03-14T11:17:44.658Z,1.35
2023-03-14T11:20:51.375Z,1.20
2023-03-14T11:23:23.406Z,1.45
2023-03-14T11:26:25.338Z,1.25
2023-03-14T11:28:59.158Z,1.45
2023-03-14T11:31:32.790Z,1.30
2023-03-14T11:33:59.317Z,1.27
2023-03-14T11:36:53.564Z,1.30
2023-03-14T11:39:21.553Z,1.40
2023-03-14T11:41:52.123Z,1.30
2023-03-14T11:44:38.001Z,1.48
2023-03-14T11:47:29.736Z,1.38
2023-03-14T11:50:05.947Z,1.52
2023-03-14T11:52:51.531Z,1.30
2023-03-14T11:55:30.110Z,1.40
2023-03-14T11:58:03.147Z,1.38
2023-03-14T12:00:31.552Z,1.50
2023-03-14T12:03:14.954Z,1.45
2023-03-14T12:05:48.857Z,1.35
2023-03-14T12:08:24.526Z,1.30
2023-03-14T12:10:55.843Z,1.50
2023-03-14T12:13:22.696Z,1.50
2023-03-14T12:15:56.001Z,1.27
2023-03-14T12:18:35.624Z,1.33
2023-03-14T12:21:05.856Z,1.50
2023-03-14T12:23:44.100Z,1.30
2023-03-14T12:26:15.708Z,1.40
2023-03-14T12:28:53.363Z,1.25
2023-03-14T12:31:32.391Z,1.40
2023-03-14T12:34:22.362Z,1.20
2023-03-14T12:36:51.838Z,1.20
2023-03-14T12:39:44.889Z,1.10
2023-03-14T12:42:45.695Z,1.23
2023-03-14T12:45:25.264Z,1.30
2023-03-14T12:47:55.164Z,1.40
2023-03-14T12:50:27.067Z,1.42
2023-03-14T12:53:28.389Z,1.35
2023-03-14T12:56:22.762Z,1.40
2023-03-14T12:59:07.734Z,1.40
2023-03-14T13:01:36.178Z,1.52
2023-03-14T13:04:11.272Z,1.58
2023-03-14T13:06:55.319Z,1.48
2023-03-14T13:09:33.753Z,1.63
2023-03-14T13:12:18.620Z,1.40
2023-03-14T13:14:49.216Z,1.52
2023-03-14T13:17:34.100Z,1.38
2023-03-14T13:20:16.102Z,1.40
2023-03-14T13:22:48.766Z,1.30
2023-03-14T13:25:17.780Z,1.37
2023-03-14T13:27:44.394Z,1.30
2023-03-14T13:30:17.062Z,1.35
2023-03-14T13:32:46.132Z,1.30
2023-03-14T13:35:28.741Z,1.30
2023-03-14T13:38:12.242Z,1.40
2023-03-14T13:43:18.631Z,1.40
2023-03-14T13:46:15.003Z,1.50
2023-03-14T13:49:12.607Z,1.38
2023-03-14T13:51:40.875Z,1.50
2023-03-14T13:54:18.752Z,1.40
2023-03-14T13:56:45.829Z,1.35
2023-03-14T13:59:29.783Z,1.45
2023-03-14T14:02:00.567Z,1.42
2023-03-14T14:04:28.241Z,1.50
2023-03-14T14:07:00.846Z,1.55
2023-03-14T14:09:36.814Z,1.40
2023-03-14T14:12:15.983Z,1.60
2023-03-14T14:14:46.211Z,1.60
2023-03-14T14:17:20.802Z,1.77
2023-03-14T14:19:48.908Z,1.75
2023-03-14T14:22:15.859Z,1.38
2023-03-14T14:24:42.776Z,1.60
2023-03-14T14:27:09.311Z,1.52
2023-03-14T14:29:36.345Z,1.60
2023-03-14T14:32:12.110Z,1.70
2023-03-14T14:34:50.702Z,1.48
2023-03-14T14:37:19.975Z,1.30
2023-03-14T14:39:47.004Z,1.30
2023-03-14T14:42:19.538Z,1.33
2023-03-14T14:44:46.749Z,1.20
2023-03-14T14:47:16.404Z,1.38
2023-03-14T14:49:42.979Z,1.40
2023-03-14T14:52:19.752Z,1.50
2023-03-14T14:54:58.136Z,1.48
2023-03-14T14:57:29.866Z,1.45
2023-03-14T15:00:01.178Z,1.40
2023-03-14T15:02:33.775Z,1.20
2023-03-14T15:05:00.664Z,1.40
2023-03-14T15:07:28.218Z,1.40
2023-03-14T15:09:54.931Z,1.27
2023-03-14T15:12:22.557Z,1.40
2023-03-14T15:14:49.228Z,1.33
2023-03-14T15:17:15.808Z,1.35
2023-03-14T15:19:42.421Z,1.60
2023-03-14T15:22:15.517Z,1.30
2023-03-14T15:24:43.106Z,1.40
2023-03-14T15:27:15.337Z,1.30
2023-03-14T15:29:42.499Z,1.40
2023-03-14T15:32:19.224Z,1.20
2023-03-14T15:34:45.873Z,1.27
2023-03-14T15:37:14.733Z,1.20
2023-03-14T15:39:42.956Z,1.20
2023-03-14T15:42:09.970Z,1.20
2023-03-14T15:44:36.811Z,1.20
2023-03-14T15:47:04.031Z,1.05
2023-03-14T15:49:30.643Z,1.30
2023-03-14T15:51:58.099Z,1.30
2023-03-14T15:54:29.233Z,1.23
2023-03-14T15:56:57.063Z,1.10
2023-03-14T15:59:25.165Z,1.15
2023-03-14T16:01:51.846Z,1.02
2023-03-14T16:04:19.047Z,1.00
2023-03-14T16:06:46.329Z,1.13
2023-03-14T16:09:14.074Z,1.10
2023-03-14T16:11:40.946Z,1.10
2023-03-14T16:14:07.820Z,1.00
2023-03-14T16:16:34.508Z,1.10
2023-03-14T16:19:01.245Z,1.10
2023-03-14T16:21:28.806Z,1.10
2023-03-14T16:23:55.362Z,1.00
2023-03-14T16:26:22.036Z,1.00
2023-03-14T16:28:49.061Z,1.05
2023-03-14T16:31:18.507Z,1.00
2023-03-14T16:33:45.489Z,0.90
2023-03-14T16:36:13.699Z,0.90
2023-03-14T16:38:42.163Z,1.10
2023-03-14T16:41:17.268Z,0.90
2023-03-14T16:43:44.695Z,1.00
2023-03-14T16:46:19.225Z,0.95
2023-03-14T16:48:46.375Z,0.90
2023-03-14T16:51:14.239Z,0.95
2023-03-14T16:53:40.964Z,0.90
2023-03-14T16:56:08.735Z,0.90
2023-03-14T16:58:35.879Z,0.80
2023-03-14T17:01:11.417Z,0.90
2023-03-14T17:03:43.834Z,0.85
2023-03-14T17:06:20.090Z,0.80
2023-03-14T17:08:46.917Z,0.82
2023-03-14T17:11:13.471Z,0.80
2023-03-14T17:13:40.136Z,0.80
2023-03-14T17:16:07.564Z,0.90
2023-03-14T17:18:34.512Z,0.90
2023-03-14T17:21:02.012Z,0.90
2023-03-14T17:23:31.250Z,0.90
2023-03-14T17:25:58.192Z,0.90
2023-03-14T17:28:26.800Z,0.85
2023-03-14T17:31:12.764Z,0.80
2023-03-14T17:33:39.502Z,0.80
2023-03-14T17:36:06.869Z,0.80
2023-03-14T17:38:37.555Z,0.90
2023-03-14T17:41:09.912Z,0.70
2023-03-14T17:43:37.305Z,0.70
2023-03-14T17:46:11.465Z,0.70
2023-03-14T17:48:38.589Z,0.70
2023-03-14T17:51:05.622Z,0.70
2023-03-14T17:53:32.284Z,0.70
2023-03-14T17:55:58.937Z,0.80
2023-03-14T17:58:27.289Z,0.80
2023-03-14T18:00:54.251Z,0.77
2023-03-14T18:03:22.394Z,0.90
2023-03-14T18:05:49.022Z,0.80
2023-03-14T18:08:16.242Z,0.80
2023-03-14T18:10:42.980Z,0.70
2023-03-14T18:13:09.602Z,0.70
2023-03-14T18:15:36.376Z,0.70
2023-03-14T18:18:03.301Z,0.70
2023-03-14T18:20:30.578Z,0.80
2023-03-14T18:22:57.459Z,0.70
2023-03-14T18:25:24.259Z,0.70
2023-03-14T18:27:51.035Z,0.60
2023-03-14T18:30:20.134Z,0.70
2023-03-14T18:32:46.799Z,0.70
2023-03-14T18:35:13.449Z,0.70
2023-03-14T18:37:40.080Z,0.60
2023-03-14T18:40:10.370Z,0.60
2023-03-14T18:42:37.021Z,0.60
2023-03-14T18:45:04.178Z,0.60
2023-03-14T18:47:31.880Z,0.70
2023-03-14T18:49:58.503Z,0.63
2023-03-14T18:52:25.117Z,0.60
2023-03-14T18:54:51.781Z,0.60
2023-03-14T18:57:18.420Z,0.60
2023-03-14T18:59:45.334Z,0.60
2023-03-14T19:02:14.026Z,0.60
2023-03-14T19:04:40.701Z,0.60
2023-03-14T19:07:07.348Z,0.60
2023-03-14T19:09:34.298Z,0.50
2023-03-14T19:12:00.869Z,0.60
2023-03-14T19:14:27.660Z,0.50
2023-03-14T19:16:54.330Z,0.50
2023-03-14T19:19:21.295Z,0.50
2023-03-14T19:21:48.020Z,0.60
2023-03-14T19:24:18.970Z,0.50
2023-03-14T19:26:45.768Z,0.60
2023-03-14T19:29:12.367Z,0.50
2023-03-14T19:31:39.008Z,0.50
2023-03-14T19:34:05.987Z,0.43
2023-03-14T19:36:36.680Z,0.50
2023-03-14T19:39:06.085Z,0.50
2023-03-14T19:41:33.747Z,0.50
2023-03-14T19:44:01.134Z,0.60
2023-03-14T19:46:28.195Z,0.50
2023-03-14T19:48:54.830Z,0.52
2023-03-14T19:51:22.821Z,0.50
2023-03-14T19:53:50.045Z,0.50
2023-03-14T19:56:16.732Z,0.50
2023-03-14T19:58:43.963Z,0.50
2023-03-14T20:01:12.911Z,0.50
2023-03-14T20:03:40.081Z,0.50
2023-03-14T20:06:08.070Z,0.50
2023-03-14T20:08:34.961Z,0.57
2023-03-14T20:11:05.258Z,0.40
2023-03-14T20:13:32.367Z,0.40
2023-03-14T20:16:00.023Z,0.50
2023-03-14T20:18:26.742Z,0.40
2023-03-14T20:20:53.492Z,0.50
2023-03-14T20:23:20.232Z,0.50
2023-03-14T20:25:54.935Z,0.50
2023-03-14T20:28:21.898Z,0.50
2023-03-14T20:30:49.281Z,0.50
2023-03-14T20:33:18.651Z,0.50
2023-03-14T20:35:56.469Z,0.50
2023-03-14T20:38:26.619Z,0.40
2023-03-14T20:40:56.238Z,0.50
2023-03-14T20:43:23.040Z,0.50
2023-03-14T20:46:00.481Z,0.50
2023-03-14T20:48:29.297Z,0.50
2023-03-14T20:50:56.492Z,0.50
2023-03-14T20:53:24.016Z,0.50
2023-03-14T20:55:52.272Z,0.45
2023-03-14T20:58:19.226Z,0.50
2023-03-14T21:00:48.902Z,0.50
2023-03-14T21:03:17.744Z,0.50
2023-03-14T21:05:46.732Z,0.50
2023-03-14T21:08:15.488Z,0.50
2023-03-14T21:10:43.306Z,0.50
2023-03-14T21:13:09.929Z,0.50
2023-03-14T21:15:37.992Z,0.50
2023-03-14T21:18:05.726Z,0.50
2023-03-14T21:20:37.756Z,0.50
2023-03-14T21:23:05.670Z,0.40
2023-03-14T21:25:33.310Z,0.45
2023-03-14T21:28:00.044Z,0.40
2023-03-14T21:30:26.799Z,0.40
2023-03-14T21:32:53.385Z,0.50
2023-03-14T21:35:20.114Z,0.40
2023-03-14T21:37:47.274Z,0.40
2023-03-14T21:40:14.143Z,0.43
2023-03-14T21:42:40.749Z,0.50
2023-03-14T21:45:08.052Z,0.50
2023-03-14T21:47:34.712Z,0.50
2023-03-14T21:50:01.909Z,0.40
2023-03-14T21:52:28.590Z,0.40
2023-03-14T21:54:55.214Z,0.40
2023-03-14T21:57:21.757Z,0.40
2023-03-14T21:59:48.361Z,0.50
2023-03-14T22:02:18.494Z,0.50
2023-03-14T22:04:45.584Z,0.40
2023-03-14T22:07:16.650Z,0.40
2023-03-14T22:09:46.162Z,0.40
2023-03-14T22:12:17.343Z,0.50
2023-03-14T22:14:43.966Z,0.50
2023-03-14T22:17:10.647Z,0.50
2023-03-14T22:19:37.304Z,0.40
2023-03-14T22:22:04.131Z,0.50
2023-03-14T22:24:30.733Z,0.50
2023-03-14T22:26:57.332Z,0.40
2023-03-14T22:29:24.357Z,0.40
2023-03-14T22:31:51.222Z,0.40
2023-03-14T22:34:17.832Z,0.47
2023-03-14T22:36:44.494Z,0.40
2023-03-14T22:39:11.134Z,0.40
2023-03-14T22:41:37.870Z,0.40
2023-03-14T22:44:04.508Z,0.40
2023-03-14T22:46:31.261Z,0.47
2023-03-14T22:48:57.826Z,0.40
2023-03-14T22:51:24.459Z,0.50
2023-03-14T22:53:51.113Z,0.40
2023-03-14T22:56:17.704Z,0.40
2023-03-14T22:58:44.335Z,0.40
2023-03-14T23:01:10.976Z,0.40
2023-03-14T23:03:37.573Z,0.40
2023-03-14T23:06:06.078Z,0.40
2023-03-14T23:08:33.362Z,0.40
2023-03-14T23:11:02.043Z,0.40
2023-03-14T23:13:30.775Z,0.50
2023-03-14T23:15:58.116Z,0.40
2023-03-14T23:18:27.640Z,0.40
2023-03-14T23:21:18.400Z,0.40
2023-03-14T23:23:46.857Z,0.40
2023-03-14T23:26:19.255Z,0.40
2023-03-14T23:28:45.850Z,0.40
2023-03-14T23:31:14.497Z,0.40
2023-03-14T23:33:42.174Z,0.40
2023-03-14T23:36:13.261Z,0.47
2023-03-14T23:38:41.754Z,0.50
2023-03-14T23:41:09.631Z,0.40
2023-03-14T23:43:36.252Z,0.40
2023-03-14T23:46:02.909Z,0.40
2023-03-14T23:48:33.840Z,0.40
2023-03-14T23:51:03.657Z,0.40
2023-03-14T23:53:31.703Z,0.40
2023-03-14T23:55:58.880Z,0.40
2023-03-14T23:58:25.854Z,0.40
